createdAt,value
2017-05-26T00:01:00.794Z,57.90
2017-05-26T00:03:28.010Z,58.10
2017-05-26T00:05:55.128Z,58.30
2017-05-26T00:08:22.089Z,58.30
2017-05-26T00:10:49.098Z,58.40
2017-05-26T00:13:16.085Z,58.70
2017-05-26T00:15:43.039Z,58.40
2017-05-26T00:18:10.009Z,58.60
2017-05-26T00:20:36.995Z,58.80
2017-05-26T00:23:03.942Z,58.80
2017-05-26T00:25:30.929Z,59.00
2017-05-26T00:27:57.877Z,59.50
2017-05-26T00:30:24.828Z,58.70
2017-05-26T00:32:51.830Z,58.60
2017-05-26T00:35:18.782Z,58.60
2017-05-26T00:37:45.717Z,58.30
2017-05-26T00:40:12.728Z,58.20
2017-05-26T00:42:39.666Z,58.20
2017-05-26T00:45:06.664Z,58.30
2017-05-26T00:47:33.605Z,58.40
2017-05-26T00:50:00.545Z,58.50
2017-05-26T00:52:27.551Z,58.50
2017-05-26T00:54:54.497Z,58.70
2017-05-26T00:57:21.438Z,58.60
2017-05-26T00:59:48.418Z,58.60
2017-05-26T01:02:15.380Z,58.80
2017-05-26T01:04:42.373Z,59.00
2017-05-26T01:07:09.353Z,59.00
2017-05-26T01:09:36.329Z,59.10
2017-05-26T01:12:03.294Z,59.20
2017-05-26T01:14:30.289Z,59.20
2017-05-26T01:16:57.284Z,58.90
2017-05-26T01:19:24.316Z,58.50
2017-05-26T01:21:51.286Z,58.60
2017-05-26T01:24:18.223Z,58.80
2017-05-26T01:26:45.219Z,58.90
2017-05-26T01:29:12.162Z,59.10
2017-05-26T01:31:40.478Z,59.40
2017-05-26T01:34:07.552Z,59.50
2017-05-26T01:36:34.531Z,59.70
2017-05-26T01:39:01.489Z,59.70
2017-05-26T01:41:28.487Z,59.50
2017-05-26T01:43:55.454Z,59.20
2017-05-26T01:46:22.457Z,59.20
2017-05-26T01:48:49.484Z,59.20
2017-05-26T01:51:16.461Z,59.20
2017-05-26T01:53:43.539Z,59.70
2017-05-26T01:56:10.523Z,59.20
2017-05-26T01:58:37.477Z,59.30
2017-05-26T02:01:04.437Z,59.40
2017-05-26T02:03:31.443Z,59.00
2017-05-26T02:05:58.386Z,58.90
2017-05-26T02:08:25.342Z,59.10
2017-05-26T02:10:52.333Z,59.30
2017-05-26T02:13:19.290Z,59.30
2017-05-26T02:15:46.240Z,59.70
2017-05-26T02:18:13.215Z,59.90
2017-05-26T02:20:40.169Z,60.00
2017-05-26T02:23:07.177Z,59.90
2017-05-26T02:25:34.132Z,59.70
2017-05-26T02:28:01.082Z,59.70
2017-05-26T02:30:28.054Z,59.10
2017-05-26T02:32:55.002Z,59.30
2017-05-26T02:35:21.986Z,59.50
2017-05-26T02:37:48.926Z,59.00
2017-05-26T02:40:15.966Z,58.60
2017-05-26T02:42:42.902Z,58.70
2017-05-26T02:45:09.933Z,58.50
2017-05-26T02:47:36.890Z,58.60
2017-05-26T02:50:03.831Z,58.90
2017-05-26T02:52:30.818Z,59.00
2017-05-26T02:54:57.770Z,59.60
2017-05-26T02:57:24.761Z,59.60
2017-05-26T02:59:51.699Z,59.70
2017-05-26T03:02:18.647Z,59.80
2017-05-26T03:04:45.813Z,59.80
2017-05-26T03:07:12.774Z,59.70
2017-05-26T03:09:39.756Z,59.50
2017-05-26T03:12:06.753Z,59.50
2017-05-26T03:14:33.704Z,59.50
2017-05-26T03:17:00.646Z,59.70
2017-05-26T03:19:27.649Z,59.50
2017-05-26T03:21:54.586Z,59.50
2017-05-26T03:24:21.547Z,59.60
2017-05-26T03:26:48.563Z,59.60
2017-05-26T03:29:15.516Z,59.70
2017-05-26T03:31:42.499Z,59.70
2017-05-26T03:34:09.523Z,59.70
2017-05-26T03:36:36.462Z,59.70
2017-05-26T03:39:03.459Z,59.50
2017-05-26T03:41:30.448Z,59.40
2017-05-26T03:43:57.427Z,59.50
2017-05-26T03:46:24.433Z,59.70
2017-05-26T03:48:51.386Z,59.80
2017-05-26T03:51:18.335Z,59.80
2017-05-26T03:53:45.323Z,59.80
2017-05-26T03:56:12.267Z,59.70
2017-05-26T03:58:39.210Z,59.70
2017-05-26T04:01:06.216Z,59.70
2017-05-26T04:03:33.205Z,59.50
2017-05-26T04:06:00.161Z,59.70
2017-05-26T04:08:27.148Z,59.90
2017-05-26T04:10:54.149Z,60.00
2017-05-26T04:13:21.099Z,60.00
2017-05-26T04:15:48.107Z,60.30
2017-05-26T04:18:15.095Z,60.00
2017-05-26T04:20:42.063Z,60.00
2017-05-26T04:23:09.055Z,60.10
2017-05-26T04:25:36.062Z,60.30
2017-05-26T04:28:03.014Z,60.50
2017-05-26T04:30:29.963Z,60.50
2017-05-26T04:32:56.960Z,60.80
2017-05-26T04:35:23.908Z,61.00
2017-05-26T04:37:50.863Z,61.30
2017-05-26T04:40:17.866Z,61.90
2017-05-26T04:42:44.813Z,62.10
2017-05-26T04:45:11.765Z,62.30
2017-05-26T04:47:38.747Z,62.60
2017-05-26T04:50:05.744Z,62.80
2017-05-26T04:52:32.750Z,63.00
2017-05-26T04:54:59.694Z,63.30
2017-05-26T04:57:26.686Z,63.30
2017-05-26T04:59:53.633Z,63.10
2017-05-26T05:02:20.578Z,62.90
2017-05-26T05:04:47.551Z,62.70
2017-05-26T05:07:14.512Z,62.40
2017-05-26T05:09:41.508Z,62.30
2017-05-26T05:12:08.512Z,62.30
2017-05-26T05:14:35.450Z,62.20
2017-05-26T05:17:02.393Z,62.50
2017-05-26T05:19:29.393Z,62.50
2017-05-26T05:21:56.764Z,62.60
2017-05-26T05:24:23.723Z,62.60
2017-05-26T05:26:50.706Z,62.20
2017-05-26T05:29:17.713Z,61.50
2017-05-26T05:31:44.977Z,61.10
2017-05-26T05:34:11.928Z,60.30
2017-05-26T05:36:38.977Z,59.90
2017-05-26T05:39:05.999Z,60.20
2017-05-26T05:41:32.978Z,60.70
2017-05-26T05:43:59.971Z,60.00
2017-05-26T05:46:26.924Z,60.10
2017-05-26T05:48:53.870Z,60.00
2017-05-26T05:51:20.901Z,59.90
2017-05-26T05:53:47.856Z,59.90
2017-05-26T05:56:14.811Z,59.60
2017-05-26T05:58:41.786Z,60.00
2017-05-26T06:01:08.793Z,59.90
2017-05-26T06:03:35.733Z,59.90
2017-05-26T06:06:02.674Z,59.50
2017-05-26T06:08:29.676Z,58.30
2017-05-26T06:10:56.670Z,57.70
2017-05-26T06:13:23.623Z,57.60
2017-05-26T06:15:50.575Z,57.60
2017-05-26T06:18:17.576Z,57.30
2017-05-26T06:20:44.513Z,57.10
2017-05-26T06:23:11.452Z,57.60
2017-05-26T06:25:38.430Z,57.60
2017-05-26T06:28:05.399Z,57.50
2017-05-26T06:30:32.397Z,57.50
2017-05-26T06:32:59.347Z,57.00
2017-05-26T06:35:26.307Z,57.20
2017-05-26T06:37:53.296Z,57.30
2017-05-26T06:40:20.250Z,57.80
2017-05-26T06:42:47.238Z,57.50
2017-05-26T06:45:14.218Z,57.20
2017-05-26T06:47:41.163Z,57.30
2017-05-26T06:50:08.148Z,56.80
2017-05-26T06:52:35.098Z,56.60
2017-05-26T06:55:02.087Z,56.80
2017-05-26T06:57:29.052Z,56.10
2017-05-26T06:59:55.998Z,55.90
2017-05-26T07:02:23.018Z,55.70
2017-05-26T07:04:49.980Z,56.00
2017-05-26T07:07:16.946Z,56.00
2017-05-26T07:09:43.953Z,56.00
2017-05-26T07:12:10.893Z,55.50
2017-05-26T07:14:37.847Z,55.50
2017-05-26T07:17:04.829Z,55.40
2017-05-26T07:19:31.780Z,55.50
2017-05-26T07:21:58.730Z,55.30
2017-05-26T07:24:25.716Z,54.90
2017-05-26T07:26:52.673Z,54.90
2017-05-26T07:29:19.671Z,55.70
2017-05-26T07:31:46.631Z,55.90
2017-05-26T07:34:13.634Z,55.00
2017-05-26T07:36:40.615Z,55.10
2017-05-26T07:39:07.601Z,54.60
2017-05-26T07:41:34.611Z,54.70
2017-05-26T07:44:01.560Z,53.70
2017-05-26T07:46:28.507Z,52.70
2017-05-26T07:48:55.829Z,52.60
2017-05-26T07:51:22.781Z,52.50
2017-05-26T07:53:49.731Z,52.70
2017-05-26T07:56:16.722Z,51.80
2017-05-26T07:58:43.672Z,51.90
2017-05-26T08:01:10.632Z,51.80
2017-05-26T08:03:37.623Z,51.90
2017-05-26T08:06:04.603Z,51.20
2017-05-26T08:08:31.560Z,50.90
2017-05-26T08:10:58.507Z,51.10
2017-05-26T08:13:25.510Z,50.40
2017-05-26T08:15:52.451Z,50.30
2017-05-26T08:18:19.392Z,51.00
2017-05-26T08:20:46.400Z,49.70
2017-05-26T08:23:13.347Z,50.50
2017-05-26T08:25:40.313Z,50.50
2017-05-26T08:28:07.335Z,50.00
2017-05-26T08:30:34.281Z,50.10
2017-05-26T08:33:01.228Z,49.60
2017-05-26T08:35:28.218Z,49.60
2017-05-26T08:37:55.170Z,50.50
2017-05-26T08:40:22.183Z,49.80
2017-05-26T08:42:49.131Z,49.30
2017-05-26T08:45:16.080Z,49.80
2017-05-26T08:47:43.059Z,50.10
2017-05-26T08:50:10.010Z,49.60
2017-05-26T08:52:36.941Z,50.00
2017-05-26T08:55:03.954Z,49.40
2017-05-26T08:57:30.910Z,48.80
2017-05-26T08:59:57.862Z,49.10
2017-05-26T09:02:24.863Z,49.00
2017-05-26T09:04:51.807Z,49.60
2017-05-26T09:07:18.757Z,49.00
2017-05-26T09:09:45.750Z,47.50
2017-05-26T09:12:12.758Z,48.20
2017-05-26T09:14:39.719Z,48.40
2017-05-26T09:17:06.713Z,48.50
2017-05-26T09:19:33.663Z,47.60
2017-05-26T09:22:00.641Z,45.70
2017-05-26T09:24:27.627Z,46.10
2017-05-26T09:26:54.579Z,46.10
2017-05-26T09:29:21.646Z,45.60
2017-05-26T09:31:48.601Z,46.10
2017-05-26T09:34:15.551Z,46.00
2017-05-26T09:36:42.550Z,46.20
2017-05-26T09:39:09.506Z,48.20
2017-05-26T09:41:36.508Z,47.20
2017-05-26T09:44:03.460Z,46.80
2017-05-26T09:46:30.414Z,45.20
2017-05-26T09:48:57.420Z,44.90
2017-05-26T09:51:24.365Z,45.10
2017-05-26T09:53:51.310Z,45.60
2017-05-26T09:56:18.290Z,46.00
2017-05-26T09:58:45.279Z,46.80
2017-05-26T10:01:12.286Z,44.50
2017-05-26T10:03:39.234Z,44.50
2017-05-26T10:06:06.178Z,44.10
2017-05-26T10:08:33.179Z,44.20
2017-05-26T10:11:00.126Z,43.90
2017-05-26T10:13:34.022Z,44.50
2017-05-26T10:16:00.966Z,44.70
2017-05-26T10:18:27.921Z,44.00
2017-05-26T10:20:55.000Z,43.20
2017-05-26T10:23:21.951Z,44.20
2017-05-26T10:25:48.905Z,44.70
2017-05-26T10:28:15.881Z,45.20
2017-05-26T10:30:42.834Z,44.80
2017-05-26T10:33:11.394Z,44.70
2017-05-26T10:35:38.331Z,45.20
2017-05-26T10:38:05.287Z,43.60
2017-05-26T10:40:32.400Z,43.60
2017-05-26T10:42:59.450Z,43.70
2017-05-26T10:45:26.482Z,43.20
2017-05-26T10:47:53.631Z,45.20
2017-05-26T10:50:20.682Z,45.00
2017-05-26T10:52:47.760Z,46.00
2017-05-26T10:55:14.848Z,45.70
2017-05-26T10:57:42.022Z,43.50
2017-05-26T11:00:09.118Z,43.30
2017-05-26T11:02:36.163Z,42.90
2017-05-26T11:05:03.165Z,43.30
2017-05-26T11:07:30.114Z,43.90
2017-05-26T11:09:57.093Z,42.90
2017-05-26T11:12:24.091Z,43.70
2017-05-26T11:14:51.069Z,42.60
2017-05-26T11:17:18.020Z,43.50
2017-05-26T11:19:45.156Z,43.60
2017-05-26T11:22:12.114Z,43.20
2017-05-26T11:24:39.064Z,42.30
2017-05-26T11:27:06.053Z,41.80
2017-05-26T11:29:32.992Z,41.50
2017-05-26T11:32:00.005Z,43.00
2017-05-26T11:34:26.960Z,43.90
2017-05-26T11:36:53.915Z,43.00
2017-05-26T11:39:20.914Z,42.90
2017-05-26T11:41:47.870Z,43.00
2017-05-26T11:44:14.816Z,42.80
2017-05-26T11:46:42.098Z,42.30
2017-05-26T11:49:09.045Z,41.90
2017-05-26T11:51:36.009Z,42.90
2017-05-26T11:54:03.030Z,41.80
2017-05-26T11:56:29.993Z,41.90
2017-05-26T11:58:56.939Z,43.10
2017-05-26T12:01:23.931Z,42.90
2017-05-26T12:03:50.928Z,43.60
2017-05-26T12:06:17.938Z,42.70
2017-05-26T12:08:46.745Z,41.60
2017-05-26T12:11:20.052Z,42.00
2017-05-26T12:13:47.057Z,41.80
2017-05-26T12:16:14.049Z,43.00
2017-05-26T12:18:41.191Z,41.80
2017-05-26T12:21:08.451Z,42.90
2017-05-26T12:23:35.434Z,43.00
2017-05-26T12:26:02.412Z,42.50
2017-05-26T12:28:29.745Z,43.30
2017-05-26T12:30:57.880Z,43.90
2017-05-26T12:33:24.852Z,44.70
2017-05-26T12:35:51.828Z,43.40
2017-05-26T12:38:18.786Z,42.60
2017-05-26T12:40:45.725Z,41.70
2017-05-26T12:43:12.693Z,42.90
2017-05-26T12:45:50.556Z,43.00
2017-05-26T12:48:17.498Z,42.70
2017-05-26T12:50:44.449Z,43.00
2017-05-26T12:53:11.457Z,41.90
2017-05-26T12:55:38.402Z,42.50
2017-05-26T12:58:05.374Z,43.00
2017-05-26T13:00:32.392Z,42.90
2017-05-26T13:02:59.345Z,43.20
2017-05-26T13:05:26.293Z,42.40
2017-05-26T13:07:53.315Z,42.10
2017-05-26T13:13:13.726Z,41.00
2017-05-26T13:15:40.683Z,41.00
2017-05-26T13:18:07.640Z,42.10
2017-05-26T13:20:34.625Z,42.10
2017-05-26T13:23:01.581Z,42.30
2017-05-26T13:25:28.549Z,42.10
2017-05-26T13:27:55.540Z,41.20
2017-05-26T13:30:22.521Z,42.30
2017-05-26T13:32:49.483Z,42.30
2017-05-26T13:35:16.458Z,42.50
2017-05-26T13:37:43.422Z,42.00
2017-05-26T13:40:10.397Z,42.20
2017-05-26T13:42:37.350Z,42.70
2017-05-26T13:45:04.330Z,42.60
2017-05-26T13:47:31.305Z,40.90
2017-05-26T13:49:58.589Z,42.30
2017-05-26T13:52:25.668Z,41.20
2017-05-26T13:55:07.542Z,41.10
2017-05-26T13:57:34.527Z,41.30
2017-05-26T14:00:01.487Z,41.70
2017-05-26T14:02:28.465Z,41.30
2017-05-26T14:04:55.425Z,41.40
2017-05-26T14:07:22.419Z,42.10
2017-05-26T14:09:49.365Z,40.90
2017-05-26T14:12:16.326Z,41.20
2017-05-26T14:14:43.278Z,41.80
2017-05-26T14:17:10.221Z,41.20
2017-05-26T14:19:37.189Z,40.90
2017-05-26T14:22:04.167Z,41.90
2017-05-26T14:24:31.391Z,41.30
2017-05-26T14:26:58.447Z,40.90
2017-05-26T14:29:25.424Z,41.00
2017-05-26T14:31:52.369Z,41.00
2017-05-26T14:34:19.337Z,41.00
2017-05-26T14:36:46.292Z,41.00
2017-05-26T14:39:13.265Z,41.10
2017-05-26T14:41:40.207Z,42.60
2017-05-26T14:44:07.188Z,40.80
2017-05-26T14:46:34.128Z,41.60
2017-05-26T14:49:01.082Z,40.20
2017-05-26T14:51:28.065Z,39.30
2017-05-26T14:53:55.010Z,39.30
2017-05-26T14:56:21.978Z,39.10
2017-05-26T14:58:48.928Z,40.60
2017-05-26T15:01:15.902Z,40.10
2017-05-26T15:03:42.845Z,41.10
2017-05-26T15:06:09.803Z,40.50
2017-05-26T15:08:36.780Z,40.20
2017-05-26T15:11:03.779Z,40.60
2017-05-26T15:13:30.741Z,39.80
2017-05-26T15:15:57.731Z,40.40
2017-05-26T15:18:24.715Z,40.80
2017-05-26T15:20:51.679Z,40.00
2017-05-26T15:23:18.660Z,40.60
2017-05-26T15:25:45.609Z,40.70
2017-05-26T15:28:12.586Z,40.20
2017-05-26T15:30:39.540Z,40.30
2017-05-26T15:33:06.512Z,40.80
2017-05-26T15:35:33.476Z,41.00
2017-05-26T15:38:00.478Z,40.20
2017-05-26T15:40:27.428Z,40.20
2017-05-26T15:42:54.401Z,41.30
2017-05-26T15:45:21.380Z,41.80
2017-05-26T15:47:48.326Z,41.90
2017-05-26T15:50:15.297Z,42.00
2017-05-26T15:52:42.252Z,42.50
2017-05-26T15:55:09.232Z,42.50
2017-05-26T15:57:36.197Z,41.50
2017-05-26T16:00:03.196Z,41.80
2017-05-26T16:02:30.153Z,40.90
2017-05-26T16:04:57.134Z,40.70
2017-05-26T16:07:24.109Z,40.60
2017-05-26T16:09:51.105Z,40.80
2017-05-26T16:12:18.073Z,41.10
2017-05-26T16:14:45.032Z,41.60
2017-05-26T16:17:11.996Z,41.90
2017-05-26T16:19:38.946Z,42.10
2017-05-26T16:22:05.913Z,41.80
2017-05-26T16:24:32.855Z,41.70
2017-05-26T16:26:59.827Z,42.00
2017-05-26T16:29:26.767Z,42.20
2017-05-26T16:31:53.741Z,42.40
2017-05-26T16:34:20.681Z,42.40
2017-05-26T16:36:47.680Z,42.40
2017-05-26T16:39:14.638Z,42.80
2017-05-26T16:41:41.582Z,42.10
2017-05-26T16:44:08.550Z,42.30
2017-05-26T16:46:35.496Z,42.50
2017-05-26T16:49:02.467Z,42.90
2017-05-26T16:51:29.422Z,42.70
2017-05-26T16:53:56.391Z,43.40
2017-05-26T16:56:23.330Z,43.30
2017-05-26T16:58:50.295Z,43.50
2017-05-26T17:01:17.249Z,43.30
2017-05-26T17:03:44.228Z,43.00
2017-05-26T17:06:11.176Z,43.40
2017-05-26T17:08:38.176Z,42.70
2017-05-26T17:11:05.118Z,42.70
2017-05-26T17:13:32.074Z,42.60
2017-05-26T17:15:59.054Z,42.80
2017-05-26T17:18:26.006Z,43.10
2017-05-26T17:20:52.986Z,43.10
2017-05-26T17:23:19.927Z,43.00
2017-05-26T17:25:46.901Z,43.10
2017-05-26T17:28:13.854Z,43.60
2017-05-26T17:30:40.826Z,43.40
2017-05-26T17:33:07.793Z,43.60
2017-05-26T17:35:34.770Z,43.90
2017-05-26T17:38:01.730Z,44.00
2017-05-26T17:40:28.685Z,44.50
2017-05-26T17:42:55.660Z,44.60
2017-05-26T17:45:22.607Z,44.40
2017-05-26T17:47:49.579Z,44.20
2017-05-26T17:50:16.533Z,44.60
2017-05-26T17:52:43.518Z,44.30
2017-05-26T17:55:10.480Z,44.30
2017-05-26T17:57:37.449Z,44.40
2017-05-26T18:00:04.409Z,44.50
2017-05-26T18:02:31.362Z,44.60
2017-05-26T18:04:58.333Z,44.60
2017-05-26T18:07:25.296Z,44.70
2017-05-26T18:09:52.269Z,44.40
2017-05-26T18:12:19.218Z,45.10
2017-05-26T18:14:46.187Z,44.70
2017-05-26T18:17:13.130Z,45.00
2017-05-26T18:19:40.106Z,45.20
2017-05-26T18:22:07.053Z,44.90
2017-05-26T18:24:34.037Z,45.10
2017-05-26T18:27:00.972Z,45.00
2017-05-26T18:29:27.920Z,44.90
2017-05-26T18:31:54.894Z,45.10
2017-05-26T18:34:21.854Z,45.40
2017-05-26T18:36:48.826Z,45.40
2017-05-26T18:39:15.773Z,45.60
2017-05-26T18:41:42.741Z,45.60
2017-05-26T18:44:09.726Z,45.70
2017-05-26T18:46:36.700Z,45.80
2017-05-26T18:49:03.831Z,46.00
2017-05-26T18:51:31.058Z,46.10
2017-05-26T18:53:58.005Z,46.10
2017-05-26T18:56:24.944Z,46.40
2017-05-26T18:58:52.128Z,46.30
2017-05-26T19:01:19.756Z,46.30
2017-05-26T19:03:46.729Z,46.20
2017-05-26T19:06:13.670Z,46.20
2017-05-26T19:08:40.672Z,46.30
2017-05-26T19:11:07.625Z,46.40
2017-05-26T19:13:34.602Z,46.50
2017-05-26T19:16:01.566Z,46.70
2017-05-26T19:18:28.563Z,46.80
2017-05-26T19:20:55.517Z,46.90
2017-05-26T19:23:22.513Z,47.10
2017-05-26T19:25:50.074Z,47.30
2017-05-26T19:28:17.441Z,47.20
2017-05-26T19:30:44.573Z,47.20
2017-05-26T19:33:11.826Z,47.40
2017-05-26T19:35:38.803Z,47.60
2017-05-26T19:38:05.758Z,47.80
2017-05-26T19:40:32.732Z,47.90
2017-05-26T19:42:59.694Z,48.00
2017-05-26T19:45:26.677Z,48.20
2017-05-26T19:47:53.836Z,48.30
2017-05-26T19:50:20.813Z,48.10
2017-05-26T19:52:47.763Z,48.30
2017-05-26T19:55:14.796Z,48.30
2017-05-26T19:57:41.756Z,48.40
2017-05-26T20:00:08.733Z,48.50
2017-05-26T20:02:35.714Z,48.70
2017-05-26T20:05:02.688Z,48.80
2017-05-26T20:07:29.748Z,49.30
2017-05-26T20:09:56.711Z,49.40
2017-05-26T20:12:23.677Z,49.60
2017-05-26T20:14:50.618Z,49.70
2017-05-26T20:17:17.589Z,49.90
2017-05-26T20:19:44.531Z,50.00
2017-05-26T20:22:11.498Z,50.20
2017-05-26T20:24:38.437Z,50.60
2017-05-26T20:27:05.425Z,50.50
2017-05-26T20:29:32.365Z,50.40
2017-05-26T20:31:59.317Z,51.00
2017-05-26T20:34:26.275Z,51.50
2017-05-26T20:36:53.217Z,51.40
2017-05-26T20:39:20.179Z,51.30
2017-05-26T20:41:47.134Z,51.40
2017-05-26T20:44:14.097Z,51.10
2017-05-26T20:46:41.033Z,51.20
2017-05-26T20:49:07.993Z,51.30
2017-05-26T20:51:34.954Z,51.50
2017-05-26T20:54:01.935Z,51.50
2017-05-26T20:56:28.882Z,51.90
2017-05-26T20:58:55.885Z,52.10
2017-05-26T21:01:29.811Z,52.40
2017-05-26T21:03:56.776Z,52.50
2017-05-26T21:06:23.754Z,52.70
2017-05-26T21:08:50.720Z,52.80
2017-05-26T21:11:17.690Z,52.90
2017-05-26T21:13:44.632Z,52.90
2017-05-26T21:16:11.623Z,52.70
2017-05-26T21:18:38.566Z,52.80
2017-05-26T21:21:05.509Z,52.90
2017-05-26T21:23:32.504Z,53.60
2017-05-26T21:25:59.449Z,53.10
2017-05-26T21:28:26.397Z,52.80
2017-05-26T21:30:53.396Z,52.90
2017-05-26T21:33:20.350Z,53.10
2017-05-26T21:35:47.293Z,53.30
2017-05-26T21:38:14.278Z,53.40
2017-05-26T21:40:41.229Z,53.40
2017-05-26T21:43:08.175Z,53.40
2017-05-26T21:45:35.157Z,53.30
2017-05-26T21:48:02.101Z,53.50
2017-05-26T21:50:29.090Z,53.60
2017-05-26T21:52:56.038Z,53.70
2017-05-26T21:55:22.986Z,54.00
2017-05-26T21:57:50.035Z,54.30
2017-05-26T22:00:16.988Z,54.60
2017-05-26T22:02:44.254Z,54.40
2017-05-26T22:05:11.224Z,54.70
2017-05-26T22:07:38.261Z,54.20
2017-05-26T22:10:05.217Z,54.00
2017-05-26T22:12:32.176Z,54.30
2017-05-26T22:14:59.178Z,53.80
2017-05-26T22:17:26.131Z,54.20
2017-05-26T22:19:53.123Z,54.50
2017-05-26T22:22:20.114Z,55.00
2017-05-26T22:24:47.067Z,55.30
2017-05-26T22:27:14.018Z,55.50
2017-05-26T22:29:40.989Z,55.60
2017-05-26T22:32:07.954Z,55.50
2017-05-26T22:34:34.902Z,55.30
2017-05-26T22:37:01.876Z,55.40
2017-05-26T22:39:28.837Z,55.20
2017-05-26T22:41:55.805Z,55.40
2017-05-26T22:44:22.751Z,56.20
2017-05-26T22:46:49.716Z,55.60
2017-05-26T22:49:16.653Z,55.80
2017-05-26T22:51:43.628Z,56.10
2017-05-26T22:54:10.578Z,56.20
2017-05-26T22:56:37.526Z,56.20
2017-05-26T22:59:04.490Z,55.80
2017-05-26T23:01:31.429Z,55.90
2017-05-26T23:03:58.390Z,56.00
2017-05-26T23:06:25.334Z,56.30
2017-05-26T23:08:52.314Z,56.60
2017-05-26T23:11:19.280Z,56.80
2017-05-26T23:13:46.241Z,57.10
2017-05-26T23:16:13.190Z,56.80
2017-05-26T23:18:40.151Z,56.50
2017-05-26T23:21:07.102Z,56.40
2017-05-26T23:23:34.041Z,56.50
2017-05-26T23:26:01.017Z,56.70
2017-05-26T23:28:27.970Z,57.00
2017-05-26T23:30:54.940Z,57.20
2017-05-26T23:33:21.884Z,56.80
2017-05-26T23:35:48.854Z,56.60
2017-05-26T23:38:15.814Z,56.50
2017-05-26T23:40:42.772Z,56.90
2017-05-26T23:43:09.705Z,57.20
2017-05-26T23:45:36.655Z,57.60
2017-05-26T23:48:03.635Z,57.90
2017-05-26T23:50:30.580Z,58.40
2017-05-26T23:52:57.540Z,57.80
2017-05-26T23:55:24.479Z,57.80
2017-05-26T23:57:51.441Z,57.80
